createdAt,value
2023-05-22T00:01:56.712Z,16.02
2023-05-22T00:04:23.903Z,16.83
2023-05-22T00:06:50.750Z,18.42
2023-05-22T00:09:18.020Z,17.15
2023-05-22T00:11:45.009Z,18.35
2023-05-22T00:14:13.538Z,14.65
2023-05-22T00:16:41.116Z,15.35
2023-05-22T00:19:13.218Z,16.10
2023-05-22T00:21:40.411Z,15.45
2023-05-22T00:24:07.458Z,15.13
2023-05-22T00:26:34.610Z,13.68
2023-05-22T00:29:01.777Z,15.20
2023-05-22T00:31:28.551Z,15.98
2023-05-22T00:33:55.522Z,15.60
2023-05-22T00:36:22.307Z,16.17
2023-05-22T00:38:49.078Z,15.93
2023-05-22T00:41:15.887Z,15.25
2023-05-22T00:43:42.681Z,18.08
2023-05-22T00:46:10.002Z,17.27
2023-05-22T00:48:36.907Z,15.00
2023-05-22T00:51:03.997Z,16.17
2023-05-22T00:53:31.636Z,15.75
2023-05-22T00:55:59.083Z,14.73
2023-05-22T00:58:27.187Z,15.65
2023-05-22T01:00:55.430Z,14.85
2023-05-22T01:03:26.895Z,16.75
2023-05-22T01:05:55.105Z,15.05
2023-05-22T01:08:22.197Z,14.52
2023-05-22T01:11:02.320Z,18.10
2023-05-22T01:13:32.544Z,15.05
2023-05-22T01:16:25.458Z,15.48
2023-05-22T01:19:05.434Z,14.57
2023-05-22T01:22:25.489Z,14.23
2023-05-22T01:25:13.081Z,15.02
2023-05-22T01:28:04.914Z,14.15
2023-05-22T01:31:11.053Z,14.95
2023-05-22T01:33:45.582Z,14.48
2023-05-22T01:36:20.268Z,15.63
2023-05-22T01:38:47.330Z,16.60
2023-05-22T01:41:15.041Z,14.52
2023-05-22T01:43:42.504Z,15.35
2023-05-22T01:46:09.347Z,15.60
2023-05-22T01:48:36.628Z,14.40
2023-05-22T01:51:25.962Z,15.48
2023-05-22T01:54:03.320Z,13.25
2023-05-22T01:56:38.026Z,14.85
2023-05-22T01:59:12.897Z,15.85
2023-05-22T02:01:40.321Z,15.32
2023-05-22T02:04:09.977Z,15.98
2023-05-22T02:06:38.050Z,14.82
2023-05-22T02:09:06.252Z,15.63
2023-05-22T02:11:34.425Z,14.80
2023-05-22T02:14:02.210Z,15.27
2023-05-22T02:16:30.265Z,14.65
2023-05-22T02:19:06.439Z,15.73
2023-05-22T02:21:34.894Z,15.25
2023-05-22T02:24:02.629Z,16.88
2023-05-22T02:26:29.463Z,15.43
2023-05-22T02:28:56.304Z,15.30
2023-05-22T02:31:23.151Z,16.85
2023-05-22T02:33:50.059Z,15.48
2023-05-22T02:36:16.799Z,14.85
2023-05-22T02:38:43.584Z,14.85
2023-05-22T02:41:10.315Z,16.13
2023-05-22T02:43:37.084Z,13.90
2023-05-22T02:46:03.878Z,15.02
2023-05-22T02:48:30.790Z,16.25
2023-05-22T02:50:57.550Z,15.65
2023-05-22T02:53:24.360Z,15.70
2023-05-22T02:55:52.827Z,17.00
2023-05-22T02:58:21.194Z,17.00
2023-05-22T03:00:48.342Z,18.17
2023-05-22T03:03:18.084Z,16.40
2023-05-22T03:05:46.006Z,15.75
2023-05-22T03:08:12.841Z,15.20
2023-05-22T03:10:39.889Z,15.20
2023-05-22T03:13:06.827Z,13.07
2023-05-22T03:15:33.576Z,15.07
2023-05-22T03:18:00.514Z,14.80
2023-05-22T03:20:27.394Z,15.65
2023-05-22T03:22:54.130Z,14.45
2023-05-22T03:25:21.972Z,14.55
2023-05-22T03:27:48.863Z,13.70
2023-05-22T03:30:15.894Z,14.05
2023-05-22T03:32:42.677Z,15.00
2023-05-22T03:35:09.823Z,12.32
2023-05-22T03:37:36.685Z,14.65
2023-05-22T03:40:04.806Z,15.85
2023-05-22T03:42:31.896Z,14.38
2023-05-22T03:44:58.624Z,15.77
2023-05-22T03:47:25.529Z,16.27
2023-05-22T03:49:52.362Z,13.07
2023-05-22T03:52:19.177Z,17.50
2023-05-22T03:54:45.977Z,14.35
2023-05-22T03:57:12.799Z,15.10
2023-05-22T03:59:39.708Z,16.05
2023-05-22T04:02:06.713Z,15.60
2023-05-22T04:04:38.586Z,17.33
2023-05-22T04:07:08.232Z,20.60
2023-05-22T04:09:36.442Z,20.83
2023-05-22T04:12:03.651Z,22.63
2023-05-22T04:14:30.430Z,22.40
2023-05-22T04:16:57.200Z,20.95
2023-05-22T04:19:24.046Z,17.13
2023-05-22T04:21:51.133Z,15.98
2023-05-22T04:24:18.367Z,15.15
2023-05-22T04:26:45.101Z,16.77
2023-05-22T04:29:14.358Z,11.95
2023-05-22T04:31:42.102Z,11.90
2023-05-22T04:34:12.903Z,10.75
2023-05-22T04:36:43.423Z,10.98
2023-05-22T04:39:13.593Z,11.52
2023-05-22T04:41:42.375Z,10.60
2023-05-22T04:44:13.633Z,10.82
2023-05-22T04:46:47.506Z,8.50
2023-05-22T04:49:22.634Z,9.23
2023-05-22T04:51:53.873Z,12.65
2023-05-22T04:54:25.733Z,10.85
2023-05-22T04:56:55.905Z,8.75
2023-05-22T04:59:27.874Z,8.95
2023-05-22T05:01:56.707Z,8.00
2023-05-22T05:04:25.804Z,10.98
2023-05-22T05:09:41.503Z,12.00
2023-05-22T05:12:20.940Z,8.73
2023-05-22T05:14:51.389Z,9.73
2023-05-22T05:17:30.042Z,10.57
2023-05-22T05:20:00.885Z,10.63
2023-05-22T05:22:42.968Z,11.85
2023-05-22T05:25:21.027Z,9.88
2023-05-22T05:30:44.674Z,7.25
2023-05-22T05:33:18.988Z,8.75
2023-05-22T05:35:57.248Z,6.63
2023-05-22T05:38:37.306Z,10.75
2023-05-22T05:41:09.150Z,6.90
2023-05-22T05:43:53.010Z,8.15
2023-05-22T05:46:27.305Z,6.97
2023-05-22T05:54:38.266Z,7.72
2023-05-22T05:57:12.707Z,6.73
2023-05-22T06:02:43.880Z,9.02
2023-05-22T06:05:21.249Z,7.00
2023-05-22T06:07:54.355Z,7.05
2023-05-22T06:17:05.406Z,7.90
2023-05-22T06:22:21.695Z,7.28
2023-05-22T06:24:57.236Z,5.95
2023-05-22T06:30:38.996Z,9.23
2023-05-22T06:33:11.812Z,7.07
2023-05-22T06:35:48.687Z,7.40
2023-05-22T06:38:20.726Z,8.32
2023-05-22T06:41:00.220Z,5.72
2023-05-22T06:46:10.266Z,10.75
2023-05-22T06:48:43.197Z,5.82
2023-05-22T06:51:17.857Z,6.22
2023-05-22T06:53:49.576Z,7.20
2023-05-22T06:56:22.442Z,7.03
2023-05-22T06:58:53.622Z,7.80
2023-05-22T07:01:30.711Z,6.72
2023-05-22T07:06:53.160Z,7.65
2023-05-22T07:09:30.545Z,6.75
2023-05-22T07:12:07.030Z,7.03
2023-05-22T07:14:38.369Z,8.05
2023-05-22T07:17:13.606Z,8.68
2023-05-22T07:19:51.518Z,6.38
2023-05-22T07:22:27.948Z,8.77
2023-05-22T07:25:01.715Z,6.55
2023-05-22T07:30:19.948Z,6.95
2023-05-22T07:32:52.712Z,7.78
2023-05-22T07:35:29.608Z,7.18
2023-05-22T07:38:04.367Z,8.88
2023-05-22T07:40:44.413Z,7.57
2023-05-22T07:43:46.579Z,6.93
2023-05-22T07:46:27.889Z,6.53
2023-05-22T07:49:16.155Z,6.95
2023-05-22T07:54:45.296Z,6.93
2023-05-22T07:57:24.421Z,8.63
2023-05-22T07:59:56.880Z,8.05
2023-05-22T08:02:33.463Z,8.00
2023-05-22T08:05:06.882Z,8.35
2023-05-22T08:07:41.495Z,9.40
2023-05-22T08:10:21.569Z,8.65
2023-05-22T08:12:52.666Z,8.27
2023-05-22T08:15:23.857Z,8.77
2023-05-22T08:17:59.873Z,6.63
2023-05-22T08:20:32.337Z,10.60
2023-05-22T08:23:03.904Z,6.22
2023-05-22T08:25:46.000Z,7.13
2023-05-22T08:28:15.400Z,11.38
2023-05-22T08:30:45.163Z,8.77
2023-05-22T08:33:13.536Z,6.70
2023-05-22T08:35:47.933Z,9.20
2023-05-22T08:38:29.915Z,6.85
2023-05-22T08:41:04.073Z,9.00
2023-05-22T08:43:37.424Z,7.70
2023-05-22T08:46:10.393Z,8.23
2023-05-22T08:48:40.423Z,7.88
2023-05-22T08:51:11.671Z,8.25
2023-05-22T08:53:47.943Z,6.93
2023-05-22T08:56:20.404Z,9.13
2023-05-22T08:58:55.187Z,7.80
2023-05-22T09:01:27.781Z,7.50
2023-05-22T09:04:03.106Z,8.48
2023-05-22T09:06:36.199Z,8.02
2023-05-22T09:09:08.724Z,9.25
2023-05-22T09:11:51.437Z,11.52
2023-05-22T09:14:21.811Z,7.15
2023-05-22T09:16:54.920Z,7.20
2023-05-22T09:19:28.191Z,8.05
2023-05-22T09:22:05.646Z,8.02
2023-05-22T09:24:41.930Z,7.40
2023-05-22T09:27:18.735Z,10.00
2023-05-22T09:29:55.085Z,10.13
2023-05-22T09:32:24.226Z,10.27
2023-05-22T09:34:52.510Z,11.48
2023-05-22T09:37:23.289Z,9.43
2023-05-22T09:39:57.683Z,9.55
2023-05-22T09:42:28.674Z,7.68
2023-05-22T09:44:57.339Z,10.63
2023-05-22T09:47:26.499Z,8.93
2023-05-22T09:49:57.828Z,7.00
2023-05-22T09:52:27.286Z,10.02
2023-05-22T09:54:57.845Z,10.68
2023-05-22T10:00:00.534Z,10.00
2023-05-22T10:02:29.312Z,7.40
2023-05-22T10:04:57.855Z,11.73
2023-05-22T10:07:31.645Z,6.70
2023-05-22T10:10:10.023Z,8.70
2023-05-22T10:12:46.184Z,8.95
2023-05-22T10:15:16.921Z,11.05
2023-05-22T10:17:46.084Z,8.15
2023-05-22T10:20:15.366Z,13.27
2023-05-22T10:22:43.852Z,10.98
2023-05-22T10:25:12.262Z,7.82
2023-05-22T10:27:42.199Z,7.88
2023-05-22T10:30:22.071Z,12.75
2023-05-22T10:32:59.545Z,9.95
2023-05-22T10:35:49.826Z,8.32
2023-05-22T10:38:35.852Z,8.98
2023-05-22T10:41:10.121Z,8.82
2023-05-22T10:43:49.555Z,10.68
2023-05-22T10:46:19.231Z,9.18
2023-05-22T10:48:49.282Z,11.60
2023-05-22T10:51:23.548Z,10.82
2023-05-22T10:54:14.379Z,11.40
2023-05-22T10:56:43.046Z,11.52
2023-05-22T10:59:11.445Z,8.68
2023-05-22T11:01:41.732Z,10.48
2023-05-22T11:04:11.017Z,9.00
2023-05-22T11:06:50.013Z,10.50
2023-05-22T11:09:28.444Z,10.97
2023-05-22T11:12:20.619Z,8.23
2023-05-22T11:14:58.418Z,10.13
2023-05-22T11:17:32.894Z,14.20
2023-05-22T11:20:15.613Z,10.65
2023-05-22T11:22:45.549Z,11.80
2023-05-22T11:25:22.796Z,9.30
2023-05-22T11:27:56.185Z,10.75
2023-05-22T11:30:29.948Z,10.35
2023-05-22T11:33:01.238Z,11.75
2023-05-22T11:35:30.855Z,13.85
2023-05-22T11:38:00.409Z,13.05
2023-05-22T11:40:35.064Z,14.07
2023-05-22T11:43:06.636Z,11.02
2023-05-22T11:45:46.461Z,13.27
2023-05-22T11:48:16.615Z,11.40
2023-05-22T11:53:16.942Z,9.80
2023-05-22T11:55:48.729Z,9.50
2023-05-22T11:58:19.380Z,12.48
2023-05-22T12:00:46.727Z,16.98
2023-05-22T12:03:13.684Z,12.52
2023-05-22T12:05:40.846Z,12.85
2023-05-22T12:08:07.718Z,12.05
2023-05-22T12:10:34.562Z,11.23
2023-05-22T12:13:01.394Z,12.60
2023-05-22T12:15:28.173Z,13.10
2023-05-22T12:17:56.403Z,16.63
2023-05-22T12:20:23.359Z,12.18
2023-05-22T12:22:50.222Z,18.23
2023-05-22T12:25:17.598Z,15.73
2023-05-22T12:27:45.882Z,12.10
2023-05-22T12:30:15.320Z,13.95
2023-05-22T12:32:47.999Z,12.67
2023-05-22T12:35:18.998Z,9.98
2023-05-22T12:37:50.463Z,15.43
2023-05-22T12:40:17.393Z,14.40
2023-05-22T12:42:45.002Z,12.45
2023-05-22T12:45:13.234Z,12.32
2023-05-22T12:47:40.156Z,12.13
2023-05-22T12:50:07.913Z,14.38
2023-05-22T12:52:35.942Z,12.70
2023-05-22T12:55:02.760Z,10.70
2023-05-22T12:57:29.530Z,10.40
2023-05-22T12:59:56.312Z,11.90
2023-05-22T13:02:23.277Z,8.98
2023-05-22T13:04:50.086Z,10.45
2023-05-22T13:07:16.874Z,12.32
2023-05-22T13:09:43.692Z,11.18
2023-05-22T13:12:11.254Z,14.98
2023-05-22T13:14:40.208Z,13.20
2023-05-22T13:17:07.105Z,13.50
2023-05-22T13:19:34.495Z,15.90
2023-05-22T13:22:01.524Z,14.55
2023-05-22T13:24:28.340Z,12.98
2023-05-22T13:26:55.233Z,13.38
2023-05-22T13:29:22.098Z,13.88
2023-05-22T13:31:48.885Z,13.98
2023-05-22T13:34:15.854Z,11.40
2023-05-22T13:36:42.850Z,12.15
2023-05-22T13:39:09.650Z,11.80
2023-05-22T13:41:36.500Z,15.13
2023-05-22T13:44:03.293Z,12.02
2023-05-22T13:46:30.116Z,12.05
2023-05-22T13:48:56.877Z,14.57
2023-05-22T13:51:23.805Z,11.77
2023-05-22T13:53:50.606Z,15.15
2023-05-22T13:56:17.510Z,12.48
2023-05-22T13:58:44.304Z,17.10
2023-05-22T14:01:11.124Z,13.73
2023-05-22T14:03:38.006Z,14.02
2023-05-22T14:06:05.191Z,14.95
2023-05-22T14:08:32.001Z,14.90
2023-05-22T14:10:58.844Z,13.48
2023-05-22T14:13:25.762Z,17.58
2023-05-22T14:15:52.571Z,13.38
2023-05-22T14:18:19.489Z,11.68
2023-05-22T14:20:46.852Z,13.68
2023-05-22T14:23:14.195Z,12.48
2023-05-22T14:25:44.379Z,12.27
2023-05-22T14:30:38.771Z,10.73
2023-05-22T14:33:06.071Z,12.07
2023-05-22T14:35:33.236Z,11.32
2023-05-22T14:38:00.048Z,13.55
2023-05-22T14:40:26.843Z,11.73
2023-05-22T14:42:54.463Z,16.83
2023-05-22T14:45:21.774Z,12.20
2023-05-22T14:47:48.583Z,10.77
2023-05-22T14:50:19.558Z,15.07
2023-05-22T14:52:48.405Z,12.48
2023-05-22T14:55:15.589Z,9.88
2023-05-22T14:57:42.418Z,10.60
2023-05-22T15:00:10.873Z,14.18
2023-05-22T15:02:38.090Z,12.82
2023-05-22T15:05:06.952Z,12.23
2023-05-22T15:10:04.748Z,12.93
2023-05-22T15:12:31.560Z,9.10
2023-05-22T15:14:58.344Z,11.40
2023-05-22T15:17:25.306Z,13.40
2023-05-22T15:19:52.122Z,8.90
2023-05-22T15:22:20.152Z,8.68
2023-05-22T15:24:48.252Z,9.43
2023-05-22T15:27:15.106Z,11.00
2023-05-22T15:29:41.996Z,9.00
2023-05-22T15:32:09.655Z,9.00
2023-05-22T15:34:36.574Z,10.63
2023-05-22T15:37:03.362Z,7.25
2023-05-22T15:39:30.397Z,8.70
2023-05-22T15:42:05.899Z,8.35
2023-05-22T15:44:33.748Z,7.68
2023-05-22T15:47:00.675Z,7.43
2023-05-22T15:49:30.969Z,8.90
2023-05-22T15:51:58.744Z,9.38
2023-05-22T15:54:26.209Z,12.43
2023-05-22T15:56:53.086Z,10.75
2023-05-22T15:59:19.888Z,8.13
2023-05-22T16:01:46.730Z,8.98
2023-05-22T16:04:13.565Z,9.70
2023-05-22T16:06:40.362Z,7.72
2023-05-22T16:09:07.274Z,11.13
2023-05-22T16:11:34.011Z,10.45
2023-05-22T16:14:01.321Z,8.30
2023-05-22T16:16:28.243Z,10.02
2023-05-22T16:18:55.159Z,9.27
2023-05-22T16:21:22.251Z,7.82
2023-05-22T16:23:49.056Z,11.73
2023-05-22T16:26:15.982Z,10.63
2023-05-22T16:28:42.751Z,9.40
2023-05-22T16:31:09.674Z,15.35
2023-05-22T16:33:37.592Z,10.13
2023-05-22T16:36:05.064Z,10.68
2023-05-22T16:38:32.036Z,10.38
2023-05-22T16:40:59.183Z,11.00
2023-05-22T16:43:26.134Z,8.85
2023-05-22T16:45:52.929Z,9.13
2023-05-22T16:48:20.063Z,9.88
2023-05-22T16:50:47.109Z,9.77
2023-05-22T16:53:16.727Z,9.23
2023-05-22T16:55:43.893Z,11.52
2023-05-22T16:58:12.664Z,10.88
2023-05-22T17:00:40.429Z,7.97
2023-05-22T17:03:08.229Z,8.73
2023-05-22T17:05:35.826Z,8.68
2023-05-22T17:08:03.170Z,10.75
2023-05-22T17:10:30.072Z,9.68
2023-05-22T17:12:56.963Z,8.65
2023-05-22T17:15:23.804Z,8.13
2023-05-22T17:17:51.344Z,10.00
2023-05-22T17:20:18.951Z,9.57
2023-05-22T17:22:45.740Z,8.98
2023-05-22T17:25:13.492Z,7.72
2023-05-22T17:27:40.639Z,7.90
2023-05-22T17:30:08.425Z,7.13
2023-05-22T17:32:35.570Z,9.60
2023-05-22T17:35:02.802Z,9.32
2023-05-22T17:37:29.600Z,8.20
2023-05-22T17:39:56.428Z,9.90
2023-05-22T17:42:23.370Z,11.25
2023-05-22T17:44:50.230Z,9.35
2023-05-22T17:47:18.359Z,10.30
2023-05-22T17:49:45.168Z,8.48
2023-05-22T17:52:13.205Z,9.80
2023-05-22T17:54:40.092Z,9.05
2023-05-22T17:57:06.903Z,9.70
2023-05-22T17:59:33.818Z,9.85
2023-05-22T18:02:00.793Z,9.20
2023-05-22T18:04:27.742Z,8.35
2023-05-22T18:06:54.578Z,8.32
2023-05-22T18:09:21.399Z,8.07
2023-05-22T18:11:53.601Z,6.93
2023-05-22T18:14:20.571Z,6.68
2023-05-22T18:16:47.789Z,7.25
2023-05-22T18:19:14.772Z,7.18
2023-05-22T18:21:41.954Z,7.43
2023-05-22T18:24:08.777Z,8.63
2023-05-22T18:26:35.694Z,7.13
2023-05-22T18:29:02.478Z,7.40
2023-05-22T18:31:29.670Z,6.80
2023-05-22T18:33:56.589Z,9.32
2023-05-22T18:36:23.371Z,9.48
2023-05-22T18:38:50.162Z,10.52
2023-05-22T18:41:17.025Z,8.70
2023-05-22T18:43:43.808Z,9.77
2023-05-22T18:46:10.780Z,9.70
2023-05-22T18:48:37.672Z,9.65
2023-05-22T18:51:04.536Z,8.60
2023-05-22T18:53:31.566Z,10.43
2023-05-22T18:55:58.446Z,11.68
2023-05-22T18:58:25.633Z,11.50
2023-05-22T19:00:55.513Z,16.50
2023-05-22T19:03:22.549Z,15.95
2023-05-22T19:05:49.389Z,17.42
2023-05-22T19:08:16.205Z,16.30
2023-05-22T19:10:43.216Z,15.90
2023-05-22T19:13:10.325Z,14.50
2023-05-22T19:15:38.390Z,15.55
2023-05-22T19:18:05.494Z,13.95
2023-05-22T19:20:32.512Z,12.82
2023-05-22T19:22:59.406Z,14.05
2023-05-22T19:25:26.406Z,15.10
2023-05-22T19:27:53.285Z,13.63
2023-05-22T19:30:21.894Z,16.15
2023-05-22T19:32:56.056Z,12.32
2023-05-22T19:35:23.161Z,11.00
2023-05-22T19:37:50.252Z,12.73
2023-05-22T19:40:17.270Z,11.23
2023-05-22T19:42:44.158Z,13.57
2023-05-22T19:45:13.738Z,13.65
2023-05-22T19:47:41.384Z,12.43
2023-05-22T19:50:08.432Z,12.30
2023-05-22T19:52:35.516Z,12.13
2023-05-22T19:55:02.281Z,10.68
2023-05-22T19:57:29.471Z,11.70
2023-05-22T19:59:56.439Z,10.85
2023-05-22T20:02:23.329Z,12.25
2023-05-22T20:04:51.909Z,12.05
2023-05-22T20:07:18.702Z,11.57
2023-05-22T20:09:45.531Z,10.93
2023-05-22T20:12:12.390Z,10.88
2023-05-22T20:14:39.262Z,10.75
2023-05-22T20:17:06.765Z,10.57
2023-05-22T20:19:34.598Z,11.45
2023-05-22T20:22:02.175Z,10.23
2023-05-22T20:24:29.630Z,11.52
2023-05-22T20:26:56.860Z,9.80
2023-05-22T20:29:23.746Z,12.07
2023-05-22T20:31:54.665Z,10.52
2023-05-22T20:34:22.182Z,10.85
2023-05-22T20:36:49.061Z,12.32
2023-05-22T20:39:17.338Z,10.85
2023-05-22T20:41:44.294Z,12.13
2023-05-22T20:44:11.153Z,11.52
2023-05-22T20:46:37.990Z,10.27
2023-05-22T20:49:06.158Z,12.82
2023-05-22T20:51:33.562Z,13.73
2023-05-22T20:54:00.991Z,12.70
2023-05-22T20:56:27.956Z,13.02
2023-05-22T20:58:55.157Z,11.70
2023-05-22T21:01:22.940Z,11.57
2023-05-22T21:03:51.464Z,13.43
2023-05-22T21:06:19.035Z,12.70
2023-05-22T21:08:45.857Z,10.80
2023-05-22T21:11:12.840Z,12.25
2023-05-22T21:13:39.673Z,11.57
2023-05-22T21:16:06.953Z,12.40
2023-05-22T21:18:33.875Z,18.00
2023-05-22T21:21:00.876Z,13.48
2023-05-22T21:23:27.725Z,15.32
2023-05-22T21:25:54.501Z,16.45
2023-05-22T21:28:21.354Z,18.88
2023-05-22T21:30:48.184Z,15.82
2023-05-22T21:33:15.076Z,15.90
2023-05-22T21:35:42.053Z,14.07
2023-05-22T21:38:08.954Z,14.98
2023-05-22T21:40:35.856Z,14.73
2023-05-22T21:43:02.853Z,15.52
2023-05-22T21:45:31.078Z,13.68
2023-05-22T21:47:57.936Z,13.15
2023-05-22T21:50:24.760Z,14.98
2023-05-22T21:52:51.600Z,15.60
2023-05-22T21:55:18.429Z,13.65
2023-05-22T21:57:45.850Z,15.00
2023-05-22T22:00:13.415Z,13.00
2023-05-22T22:02:40.713Z,12.00
2023-05-22T22:05:07.911Z,15.48
2023-05-22T22:07:34.804Z,16.92
2023-05-22T22:10:01.640Z,16.35
2023-05-22T22:12:28.501Z,17.83
2023-05-22T22:14:56.617Z,16.20
2023-05-22T22:17:23.902Z,15.10
2023-05-22T22:19:53.518Z,15.18
2023-05-22T22:22:22.595Z,16.47
2023-05-22T22:24:49.586Z,13.52
2023-05-22T22:27:16.421Z,13.05
2023-05-22T22:29:43.764Z,13.68
2023-05-22T22:32:10.817Z,15.00
2023-05-22T22:34:37.882Z,13.90
2023-05-22T22:37:06.163Z,14.77
2023-05-22T22:39:32.941Z,12.68
2023-05-22T22:42:04.275Z,12.63
2023-05-22T22:44:32.274Z,13.15
2023-05-22T22:47:01.723Z,13.50
2023-05-22T22:49:28.827Z,13.67
2023-05-22T22:51:56.577Z,14.18
2023-05-22T22:54:24.057Z,16.77
2023-05-22T22:56:51.473Z,12.85
2023-05-22T22:59:18.271Z,13.15
2023-05-22T23:01:45.126Z,13.05
2023-05-22T23:04:12.972Z,12.30
2023-05-22T23:06:42.582Z,14.38
2023-05-22T23:09:11.023Z,15.10
2023-05-22T23:11:38.544Z,13.27
2023-05-22T23:14:07.375Z,13.18
2023-05-22T23:16:40.871Z,14.43
2023-05-22T23:19:09.484Z,13.13
2023-05-22T23:21:37.032Z,12.63
2023-05-22T23:24:05.181Z,11.30
2023-05-22T23:26:32.902Z,12.48
2023-05-22T23:29:00.531Z,13.10
2023-05-22T23:31:30.370Z,13.25
2023-05-22T23:33:58.481Z,11.10
2023-05-22T23:36:25.867Z,11.88
2023-05-22T23:38:52.795Z,13.13
2023-05-22T23:41:19.789Z,12.43
2023-05-22T23:43:47.158Z,11.25
2023-05-22T23:46:14.764Z,11.27
2023-05-22T23:48:42.378Z,11.63
2023-05-22T23:51:09.983Z,13.18
2023-05-22T23:53:36.992Z,12.10
2023-05-22T23:56:04.610Z,13.13
2023-05-22T23:58:32.180Z,12.02
